EWR weather

Newark Liberty International Airport
Newark, New Jersey, United States

Public forecast

Using degrees Fahrenheit for public forecast. Weather courtesy of forecast.io.

Current aviation weather report (METAR) for Newark Liberty International Airport

Retrieved 2020/01/19 09:28 UTC (9 minutes ago):

KEWR 190928Z 23006KT 9SM SCT009 BKN030 OVC070 02/01 A2969 RMK AO2 T00170011

Aviation forecast (TAF) for Newark Liberty International Airport

Retrieved 2020/01/19 06:34 UTC (3 hours ago):

TAF KEWR 190532Z 1906/2012 25010G16KT P6SM OVC009 TEMPO 1907/1909 3SM -SHRA BR SCT009 OVC015 FM190900 25010G15KT P6SM OVC015 FM191300 28016G24KT P6SM SCT030 FM191900 31015G21KT P6SM BKN040